sensor_id;sensor_type;location;lat;lon;timestamp;P1;durP1;ratioP1;P2;durP2;ratioP2
16352;SDS011;8286;51.274;9.542;2023-04-07T00:01:29;9.77;;;5.87;;
16352;SDS011;8286;51.274;9.542;2023-04-07T00:03:56;10.53;;;6.67;;
16352;SDS011;8286;51.274;9.542;2023-04-07T00:06:23;11.07;;;6.30;;
16352;SDS011;8286;51.274;9.542;2023-04-07T00:08:49;9.37;;;6.73;;
16352;SDS011;8286;51.274;9.542;2023-04-07T00:11:17;9.67;;;6.40;;
16352;SDS011;8286;51.274;9.542;2023-04-07T00:13:43;21.07;;;6.90;;
16352;SDS011;8286;51.274;9.542;2023-04-07T00:16:10;11.20;;;7.07;;
16352;SDS011;8286;51.274;9.542;2023-04-07T00:18:36;11.77;;;6.80;;
16352;SDS011;8286;51.274;9.542;2023-04-07T00:21:03;10.73;;;6.17;;
16352;SDS011;8286;51.274;9.542;2023-04-07T00:23:29;11.00;;;6.30;;
16352;SDS011;8286;51.274;9.542;2023-04-07T00:25:56;12.30;;;6.70;;
16352;SDS011;8286;51.274;9.542;2023-04-07T00:28:24;13.07;;;6.93;;
16352;SDS011;8286;51.274;9.542;2023-04-07T00:30:50;10.63;;;6.53;;
16352;SDS011;8286;51.274;9.542;2023-04-07T00:33:17;11.97;;;6.57;;
16352;SDS011;8286;51.274;9.542;2023-04-07T00:35:43;13.60;;;7.50;;
16352;SDS011;8286;51.274;9.542;2023-04-07T00:38:10;12.27;;;6.93;;
16352;SDS011;8286;51.274;9.542;2023-04-07T00:40:37;10.17;;;5.63;;
16352;SDS011;8286;51.274;9.542;2023-04-07T00:43:03;10.17;;;6.30;;
16352;SDS011;8286;51.274;9.542;2023-04-07T00:45:31;12.77;;;6.60;;
16352;SDS011;8286;51.274;9.542;2023-04-07T00:47:57;13.00;;;6.73;;
16352;SDS011;8286;51.274;9.542;2023-04-07T00:50:24;10.67;;;6.67;;
16352;SDS011;8286;51.274;9.542;2023-04-07T00:52:51;10.50;;;6.43;;
16352;SDS011;8286;51.274;9.542;2023-04-07T00:55:18;10.67;;;6.33;;
16352;SDS011;8286;51.274;9.542;2023-04-07T00:57:45;9.20;;;5.50;;
16352;SDS011;8286;51.274;9.542;2023-04-07T01:00:11;10.70;;;6.80;;
16352;SDS011;8286;51.274;9.542;2023-04-07T01:02:42;13.37;;;6.77;;
16352;SDS011;8286;51.274;9.542;2023-04-07T01:05:12;8.87;;;5.97;;
16352;SDS011;8286;51.274;9.542;2023-04-07T01:07:43;9.13;;;6.37;;
16352;SDS011;8286;51.274;9.542;2023-04-07T01:10:18;7.63;;;5.43;;
16352;SDS011;8286;51.274;9.542;2023-04-07T01:12:46;9.83;;;5.80;;
16352;SDS011;8286;51.274;9.542;2023-04-07T01:15:20;10.50;;;5.97;;
16352;SDS011;8286;51.274;9.542;2023-04-07T01:17:51;8.47;;;5.10;;
16352;SDS011;8286;51.274;9.542;2023-04-07T01:20:21;8.43;;;4.37;;
16352;SDS011;8286;51.274;9.542;2023-04-07T01:22:50;7.80;;;4.57;;
16352;SDS011;8286;51.274;9.542;2023-04-07T01:25:26;5.80;;;4.17;;
16352;SDS011;8286;51.274;9.542;2023-04-07T01:28:09;6.30;;;4.10;;
16352;SDS011;8286;51.274;9.542;2023-04-07T01:30:42;4.33;;;3.73;;
16352;SDS011;8286;51.274;9.542;2023-04-07T01:33:09;4.77;;;3.90;;
16352;SDS011;8286;51.274;9.542;2023-04-07T01:35:36;5.50;;;4.40;;
16352;SDS011;8286;51.274;9.542;2023-04-07T01:38:04;5.23;;;3.70;;
16352;SDS011;8286;51.274;9.542;2023-04-07T01:40:31;8.00;;;4.20;;
16352;SDS011;8286;51.274;9.542;2023-04-07T01:42:58;7.13;;;4.27;;
16352;SDS011;8286;51.274;9.542;2023-04-07T01:45:26;5.63;;;4.40;;
16352;SDS011;8286;51.274;9.542;2023-04-07T01:47:54;5.90;;;4.03;;
16352;SDS011;8286;51.274;9.542;2023-04-07T01:50:21;6.30;;;4.40;;
16352;SDS011;8286;51.274;9.542;2023-04-07T01:52:47;8.50;;;4.37;;
16352;SDS011;8286;51.274;9.542;2023-04-07T01:55:14;5.93;;;3.67;;
16352;SDS011;8286;51.274;9.542;2023-04-07T01:57:41;4.60;;;4.03;;
16352;SDS011;8286;51.274;9.542;2023-04-07T02:00:07;4.57;;;3.60;;
16352;SDS011;8286;51.274;9.542;2023-04-07T02:02:35;3.53;;;3.20;;
16352;SDS011;8286;51.274;9.542;2023-04-07T02:05:08;5.27;;;3.60;;
16352;SDS011;8286;51.274;9.542;2023-04-07T02:07:38;4.60;;;4.10;;
16352;SDS011;8286;51.274;9.542;2023-04-07T02:10:09;4.03;;;3.63;;
16352;SDS011;8286;51.274;9.542;2023-04-07T02:12:37;5.87;;;3.90;;
16352;SDS011;8286;51.274;9.542;2023-04-07T02:15:05;4.40;;;3.90;;
16352;SDS011;8286;51.274;9.542;2023-04-07T02:17:36;4.07;;;3.23;;
16352;SDS011;8286;51.274;9.542;2023-04-07T02:20:03;4.23;;;3.73;;
16352;SDS011;8286;51.274;9.542;2023-04-07T02:22:32;4.27;;;3.33;;
16352;SDS011;8286;51.274;9.542;2023-04-07T02:24:59;4.63;;;3.50;;
16352;SDS011;8286;51.274;9.542;2023-04-07T02:27:26;6.10;;;3.60;;
16352;SDS011;8286;51.274;9.542;2023-04-07T02:29:52;6.40;;;3.77;;
16352;SDS011;8286;51.274;9.542;2023-04-07T02:32:19;4.80;;;3.63;;
16352;SDS011;8286;51.274;9.542;2023-04-07T02:34:45;5.77;;;3.47;;
16352;SDS011;8286;51.274;9.542;2023-04-07T02:37:12;5.17;;;3.70;;
16352;SDS011;8286;51.274;9.542;2023-04-07T02:39:40;8.03;;;3.77;;
16352;SDS011;8286;51.274;9.542;2023-04-07T02:42:06;5.73;;;3.30;;
16352;SDS011;8286;51.274;9.542;2023-04-07T02:44:33;4.83;;;3.40;;
16352;SDS011;8286;51.274;9.542;2023-04-07T02:46:59;4.77;;;3.77;;
16352;SDS011;8286;51.274;9.542;2023-04-07T02:49:26;4.03;;;3.63;;
16352;SDS011;8286;51.274;9.542;2023-04-07T02:51:52;10.93;;;3.40;;
16352;SDS011;8286;51.274;9.542;2023-04-07T02:54:18;3.97;;;3.57;;
16352;SDS011;8286;51.274;9.542;2023-04-07T02:56:46;5.17;;;3.77;;
16352;SDS011;8286;51.274;9.542;2023-04-07T02:59:13;5.60;;;3.43;;
16352;SDS011;8286;51.274;9.542;2023-04-07T03:01:39;4.60;;;3.40;;
16352;SDS011;8286;51.274;9.542;2023-04-07T03:04:06;4.90;;;3.30;;
16352;SDS011;8286;51.274;9.542;2023-04-07T03:06:32;5.30;;;4.13;;
16352;SDS011;8286;51.274;9.542;2023-04-07T03:08:59;4.70;;;3.83;;
16352;SDS011;8286;51.274;9.542;2023-04-07T03:11:25;4.00;;;3.40;;
16352;SDS011;8286;51.274;9.542;2023-04-07T03:13:53;4.63;;;4.07;;
16352;SDS011;8286;51.274;9.542;2023-04-07T03:16:20;4.13;;;3.53;;
16352;SDS011;8286;51.274;9.542;2023-04-07T03:18:46;5.73;;;4.30;;
16352;SDS011;8286;51.274;9.542;2023-04-07T03:21:12;3.97;;;3.53;;
16352;SDS011;8286;51.274;9.542;2023-04-07T03:23:39;4.90;;;3.40;;
16352;SDS011;8286;51.274;9.542;2023-04-07T03:26:05;3.90;;;3.30;;
16352;SDS011;8286;51.274;9.542;2023-04-07T03:28:32;3.67;;;3.37;;
16352;SDS011;8286;51.274;9.542;2023-04-07T03:31:00;3.77;;;3.43;;
16352;SDS011;8286;51.274;9.542;2023-04-07T03:33:26;7.13;;;3.93;;
16352;SDS011;8286;51.274;9.542;2023-04-07T03:35:53;4.87;;;3.67;;
16352;SDS011;8286;51.274;9.542;2023-04-07T03:38:19;4.77;;;3.80;;
16352;SDS011;8286;51.274;9.542;2023-04-07T03:40:46;4.07;;;3.60;;
16352;SDS011;8286;51.274;9.542;2023-04-07T03:43:12;4.40;;;4.00;;
16352;SDS011;8286;51.274;9.542;2023-04-07T03:45:40;4.47;;;3.37;;
16352;SDS011;8286;51.274;9.542;2023-04-07T03:48:08;5.67;;;3.83;;
16352;SDS011;8286;51.274;9.542;2023-04-07T03:50:36;8.10;;;3.60;;
16352;SDS011;8286;51.274;9.542;2023-04-07T03:53:02;6.07;;;3.80;;
16352;SDS011;8286;51.274;9.542;2023-04-07T03:55:29;6.53;;;3.80;;
16352;SDS011;8286;51.274;9.542;2023-04-07T03:57:55;4.00;;;3.47;;
16352;SDS011;8286;51.274;9.542;2023-04-07T04:00:22;3.63;;;3.33;;
16352;SDS011;8286;51.274;9.542;2023-04-07T04:02:48;6.60;;;4.07;;
16352;SDS011;8286;51.274;9.542;2023-04-07T04:05:17;4.77;;;3.73;;
16352;SDS011;8286;51.274;9.542;2023-04-07T04:07:43;6.40;;;4.13;;
16352;SDS011;8286;51.274;9.542;2023-04-07T04:10:09;6.37;;;3.73;;
16352;SDS011;8286;51.274;9.542;2023-04-07T04:12:36;4.60;;;3.80;;
16352;SDS011;8286;51.274;9.542;2023-04-07T04:15:03;5.37;;;3.57;;
16352;SDS011;8286;51.274;9.542;2023-04-07T04:17:29;4.83;;;4.00;;
16352;SDS011;8286;51.274;9.542;2023-04-07T04:19:56;4.80;;;3.80;;
16352;SDS011;8286;51.274;9.542;2023-04-07T04:22:24;5.10;;;3.87;;
16352;SDS011;8286;51.274;9.542;2023-04-07T04:24:50;4.40;;;4.00;;
16352;SDS011;8286;51.274;9.542;2023-04-07T04:27:17;4.90;;;3.57;;
16352;SDS011;8286;51.274;9.542;2023-04-07T04:29:43;6.03;;;3.70;;
16352;SDS011;8286;51.274;9.542;2023-04-07T04:32:09;5.10;;;4.33;;
16352;SDS011;8286;51.274;9.542;2023-04-07T04:34:36;6.03;;;4.13;;
16352;SDS011;8286;51.274;9.542;2023-04-07T04:37:02;7.97;;;4.93;;
16352;SDS011;8286;51.274;9.542;2023-04-07T04:39:30;6.67;;;5.23;;
16352;SDS011;8286;51.274;9.542;2023-04-07T04:41:57;6.57;;;4.47;;
16352;SDS011;8286;51.274;9.542;2023-04-07T04:44:23;5.53;;;4.70;;
16352;SDS011;8286;51.274;9.542;2023-04-07T04:46:50;6.40;;;4.30;;
16352;SDS011;8286;51.274;9.542;2023-04-07T04:49:16;6.90;;;4.27;;
16352;SDS011;8286;51.274;9.542;2023-04-07T04:51:43;6.43;;;4.40;;
16352;SDS011;8286;51.274;9.542;2023-04-07T04:54:10;7.10;;;4.40;;
16352;SDS011;8286;51.274;9.542;2023-04-07T04:56:38;6.07;;;4.20;;
16352;SDS011;8286;51.274;9.542;2023-04-07T04:59:04;6.13;;;5.07;;
16352;SDS011;8286;51.274;9.542;2023-04-07T05:01:31;7.40;;;4.13;;
16352;SDS011;8286;51.274;9.542;2023-04-07T05:03:57;5.47;;;3.90;;
16352;SDS011;8286;51.274;9.542;2023-04-07T05:06:24;5.67;;;4.17;;
16352;SDS011;8286;51.274;9.542;2023-04-07T05:12:14;7.23;;;4.40;;
16352;SDS011;8286;51.274;9.542;2023-04-07T05:14:41;6.97;;;4.07;;
16352;SDS011;8286;51.274;9.542;2023-04-07T05:17:07;5.37;;;3.60;;
16352;SDS011;8286;51.274;9.542;2023-04-07T05:19:34;7.60;;;4.67;;
16352;SDS011;8286;51.274;9.542;2023-04-07T05:22:01;7.50;;;4.57;;
16352;SDS011;8286;51.274;9.542;2023-04-07T05:24:27;6.17;;;4.07;;
16352;SDS011;8286;51.274;9.542;2023-04-07T05:26:54;5.30;;;3.87;;
16352;SDS011;8286;51.274;9.542;2023-04-07T05:29:22;6.13;;;4.03;;
16352;SDS011;8286;51.274;9.542;2023-04-07T05:31:49;7.23;;;4.50;;
16352;SDS011;8286;51.274;9.542;2023-04-07T05:34:15;6.00;;;4.20;;
16352;SDS011;8286;51.274;9.542;2023-04-07T05:36:41;5.77;;;4.30;;
16352;SDS011;8286;51.274;9.542;2023-04-07T05:39:08;4.67;;;3.90;;
16352;SDS011;8286;51.274;9.542;2023-04-07T05:41:34;5.43;;;3.90;;
16352;SDS011;8286;51.274;9.542;2023-04-07T05:44:01;4.27;;;3.43;;
16352;SDS011;8286;51.274;9.542;2023-04-07T05:46:29;4.37;;;3.70;;
16352;SDS011;8286;51.274;9.542;2023-04-07T05:48:55;4.27;;;3.30;;
16352;SDS011;8286;51.274;9.542;2023-04-07T05:51:22;6.00;;;4.10;;
16352;SDS011;8286;51.274;9.542;2023-04-07T05:53:48;4.00;;;3.60;;
16352;SDS011;8286;51.274;9.542;2023-04-07T05:56:15;4.90;;;3.93;;
16352;SDS011;8286;51.274;9.542;2023-04-07T05:58:41;5.03;;;3.23;;
16352;SDS011;8286;51.274;9.542;2023-04-07T06:01:08;7.43;;;3.63;;
16352;SDS011;8286;51.274;9.542;2023-04-07T06:03:36;4.57;;;3.90;;
16352;SDS011;8286;51.274;9.542;2023-04-07T06:06:03;4.73;;;3.63;;
16352;SDS011;8286;51.274;9.542;2023-04-07T06:08:29;4.13;;;3.40;;
16352;SDS011;8286;51.274;9.542;2023-04-07T06:10:56;5.53;;;3.83;;
16352;SDS011;8286;51.274;9.542;2023-04-07T06:13:22;4.57;;;3.20;;
16352;SDS011;8286;51.274;9.542;2023-04-07T06:15:49;7.23;;;4.30;;
16352;SDS011;8286;51.274;9.542;2023-04-07T06:18:15;5.63;;;4.40;;
16352;SDS011;8286;51.274;9.542;2023-04-07T06:20:43;4.90;;;4.00;;
16352;SDS011;8286;51.274;9.542;2023-04-07T06:23:09;5.53;;;4.13;;
16352;SDS011;8286;51.274;9.542;2023-04-07T06:25:36;5.27;;;4.23;;
16352;SDS011;8286;51.274;9.542;2023-04-07T06:28:02;6.57;;;4.03;;
16352;SDS011;8286;51.274;9.542;2023-04-07T06:30:29;6.87;;;4.20;;
16352;SDS011;8286;51.274;9.542;2023-04-07T06:32:56;5.17;;;3.77;;
16352;SDS011;8286;51.274;9.542;2023-04-07T06:35:23;7.00;;;4.13;;
16352;SDS011;8286;51.274;9.542;2023-04-07T06:37:52;3.57;;;2.93;;
16352;SDS011;8286;51.274;9.542;2023-04-07T06:40:18;4.93;;;3.37;;
16352;SDS011;8286;51.274;9.542;2023-04-07T06:42:45;6.47;;;2.97;;
16352;SDS011;8286;51.274;9.542;2023-04-07T06:45:11;4.07;;;3.20;;
16352;SDS011;8286;51.274;9.542;2023-04-07T06:47:38;2.97;;;2.73;;
16352;SDS011;8286;51.274;9.542;2023-04-07T06:50:05;3.23;;;2.70;;
16352;SDS011;8286;51.274;9.542;2023-04-07T06:52:32;3.50;;;3.03;;
16352;SDS011;8286;51.274;9.542;2023-04-07T06:55:00;3.60;;;2.30;;
16352;SDS011;8286;51.274;9.542;2023-04-07T06:57:27;3.30;;;3.00;;
16352;SDS011;8286;51.274;9.542;2023-04-07T06:59:53;2.90;;;2.70;;
16352;SDS011;8286;51.274;9.542;2023-04-07T07:02:20;2.83;;;2.53;;
16352;SDS011;8286;51.274;9.542;2023-04-07T07:04:46;4.53;;;2.90;;
16352;SDS011;8286;51.274;9.542;2023-04-07T07:07:13;3.73;;;2.73;;
16352;SDS011;8286;51.274;9.542;2023-04-07T07:09:40;4.23;;;3.00;;
16352;SDS011;8286;51.274;9.542;2023-04-07T07:12:07;3.63;;;2.50;;
16352;SDS011;8286;51.274;9.542;2023-04-07T07:14:34;3.20;;;2.90;;
16352;SDS011;8286;51.274;9.542;2023-04-07T07:17:00;3.97;;;3.30;;
16352;SDS011;8286;51.274;9.542;2023-04-07T07:19:27;3.43;;;3.00;;
16352;SDS011;8286;51.274;9.542;2023-04-07T07:21:53;4.17;;;2.80;;
16352;SDS011;8286;51.274;9.542;2023-04-07T07:24:20;3.30;;;2.67;;
16352;SDS011;8286;51.274;9.542;2023-04-07T07:26:46;4.07;;;2.70;;
16352;SDS011;8286;51.274;9.542;2023-04-07T07:29:14;3.40;;;2.67;;
16352;SDS011;8286;51.274;9.542;2023-04-07T07:31:41;3.57;;;3.10;;
16352;SDS011;8286;51.274;9.542;2023-04-07T07:34:08;4.90;;;3.73;;
16352;SDS011;8286;51.274;9.542;2023-04-07T07:36:34;4.13;;;3.67;;
16352;SDS011;8286;51.274;9.542;2023-04-07T07:39:01;5.03;;;3.60;;
16352;SDS011;8286;51.274;9.542;2023-04-07T07:41:27;6.87;;;4.00;;
16352;SDS011;8286;51.274;9.542;2023-04-07T07:43:53;5.97;;;4.10;;
16352;SDS011;8286;51.274;9.542;2023-04-07T07:46:22;7.07;;;3.80;;
16352;SDS011;8286;51.274;9.542;2023-04-07T07:48:50;6.23;;;4.17;;
16352;SDS011;8286;51.274;9.542;2023-04-07T07:51:16;5.23;;;3.77;;
16352;SDS011;8286;51.274;9.542;2023-04-07T07:53:43;4.67;;;3.77;;
16352;SDS011;8286;51.274;9.542;2023-04-07T07:56:09;4.43;;;3.43;;
16352;SDS011;8286;51.274;9.542;2023-04-07T07:58:36;5.53;;;3.90;;
16352;SDS011;8286;51.274;9.542;2023-04-07T08:01:02;5.77;;;3.70;;
16352;SDS011;8286;51.274;9.542;2023-04-07T08:03:30;4.97;;;3.50;;
16352;SDS011;8286;51.274;9.542;2023-04-07T08:05:57;6.00;;;4.13;;
16352;SDS011;8286;51.274;9.542;2023-04-07T08:08:23;4.43;;;3.90;;
16352;SDS011;8286;51.274;9.542;2023-04-07T08:10:50;4.90;;;3.93;;
16352;SDS011;8286;51.274;9.542;2023-04-07T08:13:16;4.90;;;4.40;;
16352;SDS011;8286;51.274;9.542;2023-04-07T08:15:43;5.50;;;4.40;;
16352;SDS011;8286;51.274;9.542;2023-04-07T08:18:09;5.30;;;4.27;;
16352;SDS011;8286;51.274;9.542;2023-04-07T08:20:37;5.83;;;3.60;;
16352;SDS011;8286;51.274;9.542;2023-04-07T08:23:03;5.27;;;4.43;;
16352;SDS011;8286;51.274;9.542;2023-04-07T08:25:30;6.97;;;4.17;;
16352;SDS011;8286;51.274;9.542;2023-04-07T08:27:56;7.07;;;4.20;;
16352;SDS011;8286;51.274;9.542;2023-04-07T08:30:23;4.67;;;3.67;;
16352;SDS011;8286;51.274;9.542;2023-04-07T08:32:49;6.67;;;4.20;;
16352;SDS011;8286;51.274;9.542;2023-04-07T08:35:16;5.27;;;4.47;;
16352;SDS011;8286;51.274;9.542;2023-04-07T08:37:43;7.60;;;4.40;;
16352;SDS011;8286;51.274;9.542;2023-04-07T08:40:10;7.87;;;4.60;;
16352;SDS011;8286;51.274;9.542;2023-04-07T08:42:39;6.70;;;4.53;;
16352;SDS011;8286;51.274;9.542;2023-04-07T08:45:07;7.23;;;4.60;;
16352;SDS011;8286;51.274;9.542;2023-04-07T08:47:35;5.53;;;4.50;;
16352;SDS011;8286;51.274;9.542;2023-04-07T08:50:02;7.30;;;4.73;;
16352;SDS011;8286;51.274;9.542;2023-04-07T08:52:32;5.90;;;4.20;;
16352;SDS011;8286;51.274;9.542;2023-04-07T08:55:00;6.50;;;4.63;;
16352;SDS011;8286;51.274;9.542;2023-04-07T08:57:31;6.80;;;3.87;;
16352;SDS011;8286;51.274;9.542;2023-04-07T08:59:58;5.23;;;4.07;;
16352;SDS011;8286;51.274;9.542;2023-04-07T09:02:29;5.57;;;4.10;;
16352;SDS011;8286;51.274;9.542;2023-04-07T09:04:56;6.20;;;4.00;;
16352;SDS011;8286;51.274;9.542;2023-04-07T09:07:23;4.77;;;4.27;;
16352;SDS011;8286;51.274;9.542;2023-04-07T09:09:50;5.87;;;4.13;;
16352;SDS011;8286;51.274;9.542;2023-04-07T09:12:18;7.60;;;4.80;;
16352;SDS011;8286;51.274;9.542;2023-04-07T09:14:44;8.40;;;4.60;;
16352;SDS011;8286;51.274;9.542;2023-04-07T09:17:10;6.73;;;4.80;;
16352;SDS011;8286;51.274;9.542;2023-04-07T09:19:37;4.97;;;4.33;;
16352;SDS011;8286;51.274;9.542;2023-04-07T09:22:03;6.77;;;4.70;;
16352;SDS011;8286;51.274;9.542;2023-04-07T09:24:30;5.23;;;4.60;;
16352;SDS011;8286;51.274;9.542;2023-04-07T09:27:09;6.27;;;4.90;;
16352;SDS011;8286;51.274;9.542;2023-04-07T09:29:38;6.53;;;5.10;;
16352;SDS011;8286;51.274;9.542;2023-04-07T09:32:06;6.10;;;5.00;;
16352;SDS011;8286;51.274;9.542;2023-04-07T09:34:33;6.37;;;5.20;;
16352;SDS011;8286;51.274;9.542;2023-04-07T09:37:00;7.32;;;5.55;;
16352;SDS011;8286;51.274;9.542;2023-04-07T09:39:27;8.07;;;5.18;;
16352;SDS011;8286;51.274;9.542;2023-04-07T09:41:54;7.57;;;5.93;;
16352;SDS011;8286;51.274;9.542;2023-04-07T09:44:22;10.43;;;6.38;;
16352;SDS011;8286;51.274;9.542;2023-04-07T09:46:51;7.40;;;5.97;;
16352;SDS011;8286;51.274;9.542;2023-04-07T09:49:18;7.18;;;6.25;;
16352;SDS011;8286;51.274;9.542;2023-04-07T09:51:51;8.07;;;6.05;;
16352;SDS011;8286;51.274;9.542;2023-04-07T09:54:30;11.93;;;6.00;;
16352;SDS011;8286;51.274;9.542;2023-04-07T09:59:18;8.07;;;5.70;;
16352;SDS011;8286;51.274;9.542;2023-04-07T10:01:45;10.00;;;6.43;;
16352;SDS011;8286;51.274;9.542;2023-04-07T10:04:12;10.97;;;6.57;;
16352;SDS011;8286;51.274;9.542;2023-04-07T10:06:38;7.17;;;6.47;;
16352;SDS011;8286;51.274;9.542;2023-04-07T10:09:06;8.03;;;5.93;;
16352;SDS011;8286;51.274;9.542;2023-04-07T10:11:34;7.82;;;6.13;;
16352;SDS011;8286;51.274;9.542;2023-04-07T10:14:01;8.18;;;6.55;;
16352;SDS011;8286;51.274;9.542;2023-04-07T10:16:29;9.82;;;6.72;;
16352;SDS011;8286;51.274;9.542;2023-04-07T10:18:56;10.82;;;7.28;;
16352;SDS011;8286;51.274;9.542;2023-04-07T10:21:22;9.65;;;7.32;;
16352;SDS011;8286;51.274;9.542;2023-04-07T10:23:51;9.93;;;7.30;;
16352;SDS011;8286;51.274;9.542;2023-04-07T10:26:22;11.20;;;7.32;;
16352;SDS011;8286;51.274;9.542;2023-04-07T10:28:52;8.48;;;6.85;;
16352;SDS011;8286;51.274;9.542;2023-04-07T10:31:21;9.70;;;6.72;;
16352;SDS011;8286;51.274;9.542;2023-04-07T10:33:50;9.98;;;7.30;;
16352;SDS011;8286;51.274;9.542;2023-04-07T10:36:17;10.93;;;8.48;;
16352;SDS011;8286;51.274;9.542;2023-04-07T10:41:45;8.38;;;7.10;;
16352;SDS011;8286;51.274;9.542;2023-04-07T10:47:13;12.00;;;7.40;;
16352;SDS011;8286;51.274;9.542;2023-04-07T10:50:13;9.23;;;8.00;;
16352;SDS011;8286;51.274;9.542;2023-04-07T10:52:40;11.85;;;8.50;;
16352;SDS011;8286;51.274;9.542;2023-04-07T11:03:54;12.80;;;7.85;;
16352;SDS011;8286;51.274;9.542;2023-04-07T11:06:24;11.53;;;7.77;;
16352;SDS011;8286;51.274;9.542;2023-04-07T11:08:51;10.30;;;7.43;;
16352;SDS011;8286;51.274;9.542;2023-04-07T11:11:20;9.43;;;7.60;;
16352;SDS011;8286;51.274;9.542;2023-04-07T11:14:01;9.27;;;7.20;;
16352;SDS011;8286;51.274;9.542;2023-04-07T11:16:33;10.73;;;6.63;;
16352;SDS011;8286;51.274;9.542;2023-04-07T11:19:01;10.57;;;7.53;;
16352;SDS011;8286;51.274;9.542;2023-04-07T11:21:29;7.23;;;5.90;;
16352;SDS011;8286;51.274;9.542;2023-04-07T11:23:55;6.10;;;4.90;;
16352;SDS011;8286;51.274;9.542;2023-04-07T11:26:22;7.50;;;5.85;;
16352;SDS011;8286;51.274;9.542;2023-04-07T11:28:49;8.82;;;6.68;;
16352;SDS011;8286;51.274;9.542;2023-04-07T11:31:20;8.57;;;7.20;;
16352;SDS011;8286;51.274;9.542;2023-04-07T11:33:50;6.23;;;5.20;;
16352;SDS011;8286;51.274;9.542;2023-04-07T11:36:24;5.90;;;5.30;;
16352;SDS011;8286;51.274;9.542;2023-04-07T11:38:53;7.07;;;5.70;;
16352;SDS011;8286;51.274;9.542;2023-04-07T11:41:21;6.27;;;5.23;;
16352;SDS011;8286;51.274;9.542;2023-04-07T11:43:48;5.67;;;5.10;;
16352;SDS011;8286;51.274;9.542;2023-04-07T11:46:15;7.77;;;6.13;;
16352;SDS011;8286;51.274;9.542;2023-04-07T11:48:43;10.47;;;6.23;;
16352;SDS011;8286;51.274;9.542;2023-04-07T11:51:14;7.47;;;5.77;;
16352;SDS011;8286;51.274;9.542;2023-04-07T11:53:42;6.80;;;5.83;;
16352;SDS011;8286;51.274;9.542;2023-04-07T11:56:11;9.40;;;6.20;;
16352;SDS011;8286;51.274;9.542;2023-04-07T11:58:45;7.97;;;6.20;;
16352;SDS011;8286;51.274;9.542;2023-04-07T12:01:12;7.60;;;5.77;;
16352;SDS011;8286;51.274;9.542;2023-04-07T12:03:53;9.00;;;6.30;;
16352;SDS011;8286;51.274;9.542;2023-04-07T12:06:25;7.00;;;5.73;;
16352;SDS011;8286;51.274;9.542;2023-04-07T12:08:53;7.80;;;6.53;;
16352;SDS011;8286;51.274;9.542;2023-04-07T12:11:21;7.10;;;5.57;;
16352;SDS011;8286;51.274;9.542;2023-04-07T12:13:47;10.00;;;6.07;;
16352;SDS011;8286;51.274;9.542;2023-04-07T12:16:14;6.60;;;5.30;;
16352;SDS011;8286;51.274;9.542;2023-04-07T12:18:40;9.30;;;6.67;;
16352;SDS011;8286;51.274;9.542;2023-04-07T12:21:07;8.10;;;6.00;;
16352;SDS011;8286;51.274;9.542;2023-04-07T12:23:34;7.17;;;5.97;;
16352;SDS011;8286;51.274;9.542;2023-04-07T12:26:00;9.13;;;5.90;;
16352;SDS011;8286;51.274;9.542;2023-04-07T12:28:28;6.90;;;5.73;;
16352;SDS011;8286;51.274;9.542;2023-04-07T12:30:55;6.45;;;5.63;;
16352;SDS011;8286;51.274;9.542;2023-04-07T12:33:22;6.60;;;5.68;;
16352;SDS011;8286;51.274;9.542;2023-04-07T12:35:49;7.40;;;5.85;;
16352;SDS011;8286;51.274;9.542;2023-04-07T12:38:16;8.27;;;6.07;;
16352;SDS011;8286;51.274;9.542;2023-04-07T12:40:42;7.60;;;6.47;;
16352;SDS011;8286;51.274;9.542;2023-04-07T12:43:09;7.07;;;5.73;;
16352;SDS011;8286;51.274;9.542;2023-04-07T12:45:37;9.33;;;6.10;;
16352;SDS011;8286;51.274;9.542;2023-04-07T12:48:03;7.37;;;5.70;;
16352;SDS011;8286;51.274;9.542;2023-04-07T12:50:30;7.57;;;5.70;;
16352;SDS011;8286;51.274;9.542;2023-04-07T12:52:57;7.87;;;5.70;;
16352;SDS011;8286;51.274;9.542;2023-04-07T12:55:27;8.03;;;6.40;;
16352;SDS011;8286;51.274;9.542;2023-04-07T12:57:54;8.90;;;6.13;;
16352;SDS011;8286;51.274;9.542;2023-04-07T13:00:20;7.53;;;6.17;;
16352;SDS011;8286;51.274;9.542;2023-04-07T13:02:48;8.97;;;6.33;;
16352;SDS011;8286;51.274;9.542;2023-04-07T13:05:15;9.07;;;6.17;;
16352;SDS011;8286;51.274;9.542;2023-04-07T13:07:42;7.67;;;6.00;;
16352;SDS011;8286;51.274;9.542;2023-04-07T13:10:09;11.23;;;6.50;;
16352;SDS011;8286;51.274;9.542;2023-04-07T13:12:36;7.03;;;5.30;;
16352;SDS011;8286;51.274;9.542;2023-04-07T13:15:04;7.77;;;6.10;;
16352;SDS011;8286;51.274;9.542;2023-04-07T13:17:31;9.37;;;6.33;;
16352;SDS011;8286;51.274;9.542;2023-04-07T13:20:02;9.17;;;6.17;;
16352;SDS011;8286;51.274;9.542;2023-04-07T13:22:28;8.10;;;5.93;;
16352;SDS011;8286;51.274;9.542;2023-04-07T13:24:55;8.37;;;5.87;;
16352;SDS011;8286;51.274;9.542;2023-04-07T13:27:22;10.80;;;5.93;;
16352;SDS011;8286;51.274;9.542;2023-04-07T13:29:48;6.87;;;5.77;;
16352;SDS011;8286;51.274;9.542;2023-04-07T13:32:15;8.83;;;5.30;;
16352;SDS011;8286;51.274;9.542;2023-04-07T13:34:42;9.07;;;5.40;;
16352;SDS011;8286;51.274;9.542;2023-04-07T13:37:10;9.23;;;5.83;;
16352;SDS011;8286;51.274;9.542;2023-04-07T13:39:37;7.93;;;6.03;;
16352;SDS011;8286;51.274;9.542;2023-04-07T13:42:03;8.80;;;6.27;;
16352;SDS011;8286;51.274;9.542;2023-04-07T13:44:32;8.80;;;5.87;;
16352;SDS011;8286;51.274;9.542;2023-04-07T13:46:58;7.13;;;5.83;;
16352;SDS011;8286;51.274;9.542;2023-04-07T13:49:25;7.87;;;6.27;;
16352;SDS011;8286;51.274;9.542;2023-04-07T13:51:52;9.50;;;5.97;;
16352;SDS011;8286;51.274;9.542;2023-04-07T13:54:19;9.77;;;6.57;;
16352;SDS011;8286;51.274;9.542;2023-04-07T13:56:46;9.57;;;6.17;;
16352;SDS011;8286;51.274;9.542;2023-04-07T13:59:14;8.73;;;5.93;;
16352;SDS011;8286;51.274;9.542;2023-04-07T14:01:41;10.63;;;5.97;;
16352;SDS011;8286;51.274;9.542;2023-04-07T14:04:07;7.97;;;6.20;;
16352;SDS011;8286;51.274;9.542;2023-04-07T14:06:34;9.70;;;6.50;;
16352;SDS011;8286;51.274;9.542;2023-04-07T14:09:02;8.10;;;6.30;;
16352;SDS011;8286;51.274;9.542;2023-04-07T14:11:31;8.57;;;5.93;;
16352;SDS011;8286;51.274;9.542;2023-04-07T14:13:59;9.13;;;6.03;;
16352;SDS011;8286;51.274;9.542;2023-04-07T14:16:26;9.20;;;6.20;;
16352;SDS011;8286;51.274;9.542;2023-04-07T14:18:52;9.17;;;6.20;;
16352;SDS011;8286;51.274;9.542;2023-04-07T14:21:20;8.90;;;6.00;;
16352;SDS011;8286;51.274;9.542;2023-04-07T14:23:46;8.03;;;6.13;;
16352;SDS011;8286;51.274;9.542;2023-04-07T14:26:13;10.70;;;6.87;;
16352;SDS011;8286;51.274;9.542;2023-04-07T14:28:40;8.90;;;6.07;;
16352;SDS011;8286;51.274;9.542;2023-04-07T14:31:10;12.57;;;7.73;;
16352;SDS011;8286;51.274;9.542;2023-04-07T14:33:37;7.90;;;6.33;;
16352;SDS011;8286;51.274;9.542;2023-04-07T14:36:04;7.90;;;5.83;;
16352;SDS011;8286;51.274;9.542;2023-04-07T14:38:30;7.77;;;6.33;;
16352;SDS011;8286;51.274;9.542;2023-04-07T14:40:57;6.67;;;5.80;;
16352;SDS011;8286;51.274;9.542;2023-04-07T14:43:25;9.53;;;6.27;;
16352;SDS011;8286;51.274;9.542;2023-04-07T14:45:53;9.67;;;6.07;;
16352;SDS011;8286;51.274;9.542;2023-04-07T14:48:19;8.43;;;6.17;;
16352;SDS011;8286;51.274;9.542;2023-04-07T14:50:46;9.70;;;5.93;;
16352;SDS011;8286;51.274;9.542;2023-04-07T14:53:12;7.60;;;6.07;;
16352;SDS011;8286;51.274;9.542;2023-04-07T14:55:40;8.20;;;5.83;;
16352;SDS011;8286;51.274;9.542;2023-04-07T14:58:07;7.60;;;5.67;;
16352;SDS011;8286;51.274;9.542;2023-04-07T15:00:33;9.13;;;6.33;;
16352;SDS011;8286;51.274;9.542;2023-04-07T15:03:01;7.93;;;5.77;;
16352;SDS011;8286;51.274;9.542;2023-04-07T15:05:28;8.93;;;6.87;;
16352;SDS011;8286;51.274;9.542;2023-04-07T15:07:54;7.63;;;6.10;;
16352;SDS011;8286;51.274;9.542;2023-04-07T15:10:21;8.87;;;6.87;;
16352;SDS011;8286;51.274;9.542;2023-04-07T15:12:47;10.30;;;6.03;;
16352;SDS011;8286;51.274;9.542;2023-04-07T15:15:14;7.70;;;6.00;;
16352;SDS011;8286;51.274;9.542;2023-04-07T15:17:41;8.80;;;6.40;;
16352;SDS011;8286;51.274;9.542;2023-04-07T15:20:09;10.17;;;6.70;;
16352;SDS011;8286;51.274;9.542;2023-04-07T15:22:36;9.60;;;5.93;;